Aviation Digital Data Service (ADDS)

Output produced by METARs form (0311 UTC 14 December 2018)
found at http://aviationweather.gov/metar/data/
 
KHOU 140300Z 1403/1424 29021G29KT P6SM SKC 
     FM140700 25015G27KT P6SM SCT025 BKN090 
     FM141100 28014G24KT P6SM VCSH FEW008 OVC015 
     FM141700 31020G30KT P6SM VCSH SCT015 OVC020 
     FM142100 29015G21KT P6SM OVC015
       
KIAH 140300Z 1403/1506 28011KT P6SM SKC 
     FM140600 25012G19KT P6SM SCT025 
     FM141100 28014G24KT P6SM VCSH FEW008 OVC015 
     FM141700 31018G28KT P6SM VCSH SCT015 OVC020 
     FM141900 30012G20KT P6SM OVC020
       
KSGR 132340Z 1400/1424 25007KT P6SM SKC 
     FM140100 25013KT P6SM FEW035 
     FM140700 25015G27KT P6SM SCT025 BKN090 
     FM141100 27017G28KT P6SM VCSH FEW008 OVC013 
     FM141700 31023G31KT P6SM VCSH SCT015 OVC020 
     FM142100 30016G23KT P6SM BKN025
       
KGLS 132340Z 1400/1424 21008KT P6SM VCSH FEW035 
     FM140300 26018G28KT P6SM SKC 
     FM140600 26022G32KT P6SM OVC090 
     FM140900 26020G30KT P6SM SCT025 OVC050 
     FM141100 27022G32KT P6SM SCT010 OVC017 
     FM141700 31023G33KT P6SM VCSH SCT015 OVC020
       
KLBX 132340Z 1400/1424 21007KT P6SM SKC 
     FM140100 23013G23KT P6SM SCT030 
     FM140700 25018G28KT P6SM SCT025 BKN090 
     FM141100 27019G29KT P6SM VCSH FEW008 OVC013 
     FM141700 29021G31KT P6SM VCSH SCT015 OVC020
       
KCXO 132340Z 1400/1424 26006KT P6SM VCSH SKC 
     FM140300 26012KT P6SM SCT025 
     TEMPO 1409/1413 OVC020 
     FM141300 30016G25KT P6SM OVC015 
     PROB30 1414/1418 -RA OVC008 
     FM141800 31013KT P6SM OVC015
       
KUTS 132340Z 1400/1424 26008KT P6SM SKC 
     FM140300 25013KT P6SM SCT025 
     FM140700 22011KT P6SM VCSH SCT015 OVC025 
     FM141400 31016G25KT P6SM -RA OVC011 
     PROB30 1414/1418 -SHSNRA OVC008 
     FM141800 30013KT P6SM OVC015
       
KCLL 132340Z 1400/1424 27010KT P6SM SKC 
     FM140700 30012G21KT P6SM VCSH SCT008 BKN015 OVC025 
     FM141100 31016G27KT P6SM -RA OVC013 
     PROB30 1411/1415 -SHSNRA OVC009 
     FM141600 32020G29KT P6SM -DZ OVC015 
     FM142000 31016KT P6SM OVC015